createdAt,value
2018-01-17T00:06:04.301Z,7
2018-01-17T00:16:04.444Z,8
2018-01-17T00:26:04.355Z,9
2018-01-17T00:36:04.424Z,9
2018-01-17T00:46:04.437Z,9
2018-01-17T00:56:04.391Z,10
2018-01-17T01:06:04.439Z,8
2018-01-17T01:16:04.380Z,7
2018-01-17T01:26:04.419Z,7
2018-01-17T01:36:04.400Z,5
2018-01-17T01:46:04.508Z,3
2018-01-17T01:56:04.385Z,4
2018-01-17T02:06:04.456Z,5
2018-01-17T02:16:04.532Z,3
2018-01-17T02:26:04.503Z,4
2018-01-17T02:36:04.505Z,4
2018-01-17T02:46:04.545Z,5
2018-01-17T02:56:04.564Z,6
2018-01-17T03:06:04.475Z,6
2018-01-17T03:16:04.563Z,6
2018-01-17T03:26:04.492Z,5
2018-01-17T03:36:04.532Z,6
2018-01-17T03:46:04.513Z,6
2018-01-17T03:56:04.613Z,6
2018-01-17T04:06:04.525Z,6
2018-01-17T04:16:04.554Z,7
2018-01-17T04:26:04.610Z,6
2018-01-17T04:36:04.597Z,7
2018-01-17T04:46:04.538Z,6
2018-01-17T04:56:04.595Z,7
2018-01-17T05:06:04.583Z,6
2018-01-17T05:16:04.633Z,7
2018-01-17T05:26:04.624Z,5
2018-01-17T05:36:04.590Z,6
2018-01-17T05:46:04.640Z,5
2018-01-17T05:56:04.641Z,4
2018-01-17T06:06:04.727Z,4
2018-01-17T06:16:04.611Z,4
2018-01-17T06:26:04.621Z,4
2018-01-17T06:36:04.614Z,3
2018-01-17T06:46:04.611Z,4
2018-01-17T06:56:04.688Z,3
2018-01-17T07:06:04.656Z,2
2018-01-17T07:16:04.745Z,2
2018-01-17T07:26:04.679Z,3
2018-01-17T07:36:04.723Z,4
2018-01-17T07:46:04.723Z,5
2018-01-17T07:56:04.723Z,3
2018-01-17T08:06:04.707Z,4
2018-01-17T08:16:04.742Z,3
2018-01-17T08:26:04.749Z,3
2018-01-17T08:36:04.701Z,4
2018-01-17T08:46:04.804Z,2
2018-01-17T08:56:04.803Z,2
2018-01-17T09:06:04.894Z,3
2018-01-17T09:16:05.108Z,3
2018-01-17T09:26:04.887Z,3
2018-01-17T09:36:04.962Z,3
2018-01-17T09:46:04.931Z,4
2018-01-17T09:56:52.749Z,5
2018-01-17T10:06:52.755Z,4
2018-01-17T10:16:52.730Z,3
2018-01-17T10:26:52.702Z,3
2018-01-17T10:36:52.724Z,3
2018-01-17T10:46:52.614Z,4
2018-01-17T10:56:52.726Z,3
2018-01-17T11:06:52.772Z,3
2018-01-17T11:16:52.718Z,4
2018-01-17T11:26:52.700Z,5
2018-01-17T11:36:52.803Z,4
2018-01-17T11:46:52.653Z,3
2018-01-17T11:56:52.625Z,3
2018-01-17T12:06:52.623Z,3
2018-01-17T12:16:52.780Z,3
2018-01-17T12:26:52.688Z,4
2018-01-17T12:36:52.775Z,4
2018-01-17T12:46:52.675Z,3
2018-01-17T12:56:52.800Z,3
2018-01-17T13:06:52.777Z,2
2018-01-17T13:16:52.832Z,3
2018-01-17T13:26:52.758Z,2
2018-01-17T13:47:41.500Z,1
2018-01-17T14:17:03.389Z,1
2018-01-17T14:27:37.449Z,2
2018-01-17T14:37:35.579Z,2
2018-01-17T14:47:00.511Z,3
2018-01-17T14:57:04.215Z,3
2018-01-17T15:07:36.051Z,3
2018-01-17T15:17:15.389Z,3
2018-01-17T15:26:56.132Z,3
2018-01-17T15:36:56.878Z,3
2018-01-17T15:46:56.315Z,2
2018-01-17T15:56:53.969Z,3
2018-01-17T16:06:57.239Z,2
2018-01-17T16:16:52.922Z,3
2018-01-17T16:26:52.930Z,2
2018-01-17T16:36:52.660Z,3
2018-01-17T16:46:52.659Z,3
2018-01-17T16:56:52.716Z,3
2018-01-17T17:06:52.707Z,5
2018-01-17T17:16:52.737Z,4
2018-01-17T17:26:52.649Z,4
2018-01-17T17:36:52.586Z,3
2018-01-17T17:46:52.665Z,3
2018-01-17T17:56:52.631Z,2
2018-01-17T18:06:52.666Z,3
2018-01-17T18:16:52.653Z,4
2018-01-17T18:26:52.578Z,4
2018-01-17T18:36:52.752Z,3
2018-01-17T18:46:52.732Z,4
2018-01-17T18:56:52.610Z,5
2018-01-17T19:06:52.796Z,6
2018-01-17T19:16:56.928Z,4
2018-01-17T19:26:56.725Z,3
2018-01-17T19:37:27.729Z,3
2018-01-17T19:47:05.416Z,4
2018-01-17T19:57:07.107Z,4
2018-01-17T20:07:07.888Z,3
2018-01-17T20:16:54.718Z,5
2018-01-17T20:26:52.608Z,3
2018-01-17T20:36:57.206Z,3
2018-01-17T20:46:52.739Z,3
2018-01-17T20:56:56.291Z,3
2018-01-17T21:07:00.562Z,2
2018-01-17T21:16:54.832Z,3
2018-01-17T21:26:56.396Z,3
2018-01-17T21:36:53.611Z,3
2018-01-17T21:46:56.739Z,3
2018-01-17T21:57:03.404Z,3
2018-01-17T22:07:05.138Z,3
2018-01-17T22:16:57.454Z,4
2018-01-17T22:26:56.191Z,3
2018-01-17T22:36:56.596Z,4
2018-01-17T23:26:58.949Z,6
2018-01-17T23:47:09.072Z,4
